地図

経路データ

SID SEASON NUMBER BASIN SUBBASIN NAME ISO_TIME NATURE LAT LON WMO_WIND WMO_PRES WMO_AGENCY TRACK_TYPE DIST2LAND LANDFALL IFLAG USA_AGENCY USA_ATCF_ID USA_LAT USA_LON USA_RECORD USA_STATUS USA_WIND USA_PRES USA_SSHS USA_R34_NE USA_R34_SE USA_R34_SW USA_R34_NW USA_R50_NE USA_R50_SE USA_R50_SW USA_R50_NW USA_R64_NE USA_R64_SE USA_R64_SW USA_R64_NW USA_POCI USA_ROCI USA_RMW USA_EYE TOKYO_LAT TOKYO_LON TOKYO_GRADE TOKYO_WIND TOKYO_PRES TOKYO_R50_DIR TOKYO_R50_LONG TOKYO_R50_SHORT TOKYO_R30_DIR TOKYO_R30_LONG TOKYO_R30_SHORT TOKYO_LAND CMA_LAT CMA_LON CMA_CAT CMA_WIND CMA_PRES HKO_LAT HKO_LON HKO_CAT HKO_WIND HKO_PRES NEWDELHI_LAT NEWDELHI_LON NEWDELHI_GRADE NEWDELHI_WIND NEWDELHI_PRES NEWDELHI_CI NEWDELHI_DP NEWDELHI_POCI REUNION_LAT REUNION_LON REUNION_TYPE REUNION_WIND REUNION_PRES REUNION_TNUM REUNION_CI REUNION_RMW REUNION_R34_NE REUNION_R34_SE REUNION_R34_SW REUNION_R34_NW REUNION_R50_NE REUNION_R50_SE REUNION_R50_SW REUNION_R50_NW REUNION_R64_NE REUNION_R64_SE REUNION_R64_SW REUNION_R64_NW BOM_LAT BOM_LON BOM_TYPE BOM_WIND BOM_PRES BOM_TNUM BOM_CI BOM_RMW BOM_R34_NE BOM_R34_SE BOM_R34_SW BOM_R34_NW BOM_R50_NE BOM_R50_SE BOM_R50_SW BOM_R50_NW BOM_R64_NE BOM_R64_SE BOM_R64_SW BOM_R64_NW BOM_ROCI BOM_POCI BOM_EYE BOM_POS_METHOD BOM_PRES_METHOD NADI_LAT NADI_LON NADI_CAT NADI_WIND NADI_PRES WELLINGTON_LAT WELLINGTON_LON WELLINGTON_WIND WELLINGTON_PRES DS824_LAT DS824_LON DS824_STAGE DS824_WIND DS824_PRES TD9636_LAT TD9636_LON TD9636_STAGE TD9636_WIND TD9636_PRES TD9635_LAT TD9635_LON TD9635_WIND TD9635_PRES TD9635_ROCI NEUMANN_LAT NEUMANN_LON NEUMANN_CLASS NEUMANN_WIND NEUMANN_PRES MLC_LAT MLC_LON MLC_CLASS MLC_WIND MLC_PRES USA_GUST BOM_GUST BOM_GUST_PER REUNION_GUST REUNION_GUST_PER USA_SEAHGT USA_SEARAD_NE USA_SEARAD_SE USA_SEARAD_SW USA_SEARAD_NW STORM_SPEED STORM_DIR
2002126N09068 2002 21 NI AS NOT_NAMED 2002-05-05 18:00:00 TS 8.60000 67.7000 main 904 904 O_____________ jtwc_io IO012002 8.60000 67.7000 TD 25 1002 -1 1003 120 75 4 276
2002126N09068 2002 21 NI AS NOT_NAMED 2002-05-05 21:00:00 TS 8.62498 67.4750 main 924 924 P_____________ IO012002 8.62498 67.4750 TD 25 1002 -1 1005 135 75 5 281
2002126N09068 2002 21 NI AS NOT_NAMED 2002-05-06 00:00:00 TS 8.70000 67.2000 main 948 943 O_____________ jtwc_io IO012002 8.70000 67.2000 TD 25 1002 -1 1008 150 75 9 319
2002126N09068 2002 21 NI AS NOT_NAMED 2002-05-06 03:00:00 TS 9.30004 66.8800 25 1002 newdelhi main 947 947 P___O_________ IO012002 8.87505 66.8500 TD 27 1002 -1 1005 135 75 11.0000 67.0000 D 25 1002 1.50000 4 15 331
2002126N09068 2002 21 NI AS NOT_NAMED 2002-05-06 06:00:00 TS 9.96667 66.5000 25 1002 newdelhi main 958 957 O___O_________ jtwc_io IO012002 9.20000 66.5000 TD 30 1002 -1 1003 120 75 11.5000 66.5000 D 25 1002 1.50000 4 15 333
2002126N09068 2002 21 NI AS NOT_NAMED 2002-05-06 09:00:00 TS 10.6136 66.2109 main 968 961 P___P_________ IO012002 9.69749 66.2200 TD 30 1001 -1 1003 120 75 11.8351 66.1987 D 25 1001 4 13 337
2002126N09068 2002 21 NI AS NOT_NAMED 2002-05-06 12:00:00 TS 11.1500 66.0000 25 1000 newdelhi main 960 960 O___O_________ jtwc_io IO012002 10.3000 66.0000 TD 30 1000 -1 1003 120 75 12.0000 66.0000 D 25 1000 1.50000 4 9 335
2002126N09068 2002 21 NI AS NOT_NAMED 2002-05-06 15:00:00 TS 11.4424 65.8147 main 969 965 P___P_________ IO012002 10.9223 65.8797 TD 30 1000 -1 1003 120 67 11.9625 65.7497 D 25 1000 4 7 327
2002126N09068 2002 21 NI AS NOT_NAMED 2002-05-06 18:00:00 TS 11.7500 65.6000 25 1000 newdelhi main 970 970 O___O_________ jtwc_io IO012002 11.5000 65.7000 TD 30 1000 -1 1003 120 60 12.0000 65.5000 D 25 1000 1.50000 4 9 326
2002126N09068 2002 21 NI AS NOT_NAMED 2002-05-06 21:00:00 TS 12.1997 65.2944 main 983 979 P___P_________ IO012002 11.9676 65.2877 TD 35 997 0 50 45 45 50 1003 127 52 12.4317 65.3010 D 25 1000 4 11 323
2002126N09068 2002 21 NI AS NOT_NAMED 2002-05-07 00:00:00 TS 12.6500 64.9000 25 1000 newdelhi main 999 981 O___O_________ jtwc_io IO012002 12.3000 64.8000 TS 40 994 0 100 90 90 100 1003 135 45 13.0000 65.0000 D 25 1000 1.50000 4 12 314
2002126N09068 2002 21 NI AS NOT_NAMED 2002-05-07 03:00:00 TS 13.0050 64.4424 30 998 newdelhi main 973 935 P___O_________ IO012002 12.5099 64.3849 TS 40 995 0 80 1003 142 45 13.5000 64.5000 DD 30 998 2.00000 6 10 295
2002126N09068 2002 21 NI AS NOT_NAMED 2002-05-07 06:00:00 TS 13.0500 64.0000 30 998 newdelhi main 935 905 O___O_________ jtwc_io IO012002 12.6000 64.0000 TS 40 997 0 60 1003 150 45 13.5000 64.0000 DD 30 998 2.00000 6 9 274
2002126N09068 2002 21 NI AS NOT_NAMED 2002-05-07 09:00:00 TS 13.0613 63.5504 main 905 876 P___P_________ IO012002 12.6225 63.6349 TS 40 995 0 60 1003 142 45 13.5001 63.4659 DD 30 997 6 8 270
2002126N09068 2002 21 NI AS NOT_NAMED 2002-05-07 12:00:00 TS 13.0500 63.1500 30 996 newdelhi main 876 864 O___O_________ jtwc_io IO012002 12.6000 63.3000 TS 40 994 0 60 1003 135 45 13.5000 63.0000 DD 30 996 2.00000 6 7 268
2002126N09068 2002 21 NI AS NOT_NAMED 2002-05-07 15:00:00 TS 13.0387 62.8375 main 858 845 P___P_________ IO012002 12.5774 62.9999 TS 37 995 0 1003 135 45 13.4999 62.6750 DD 30 997 6 5 270
2002126N09068 2002 21 NI AS NOT_NAMED 2002-05-07 18:00:00 TS 13.0500 62.6000 30 998 newdelhi main 836 829 O___O_________ jtwc_io IO012002 12.6000 62.7000 TS 35 997 0 1003 135 45 13.5000 62.5000 DD 30 998 2.00000 6 4 282
2002126N09068 2002 21 NI AS NOT_NAMED 2002-05-07 21:00:00 TS 13.1136 62.4704 main 829 807 P___P_________ IO012002 12.7274 62.3725 TS 35 997 0 1003 135 45 13.4999 62.5682 DD 30 997 6 4 294
2002126N09068 2002 21 NI AS NOT_NAMED 2002-05-08 00:00:00 TS 13.2000 62.2500 30 996 newdelhi main 807 767 O___O_________ jtwc_io IO012002 12.9000 62.0000 TS 35 997 0 1003 135 45 13.5000 62.5000 DD 30 996 2.00000 6 7 284
2002126N09068 2002 21 NI AS NOT_NAMED 2002-05-08 03:00:00 TS 13.2788 61.7750 25 1002 newdelhi main 767 735 P___O_________ IO012002 13.0576 61.5500 TS 35 997 0 1003 135 45 13.5000 62.0000 D 25 1002 1.50000 4 9 279
2002126N09068 2002 21 NI AS NOT_NAMED 2002-05-08 06:00:00 TS 13.3500 61.3000 25 1002 newdelhi main 727 704 O___O_________ jtwc_io IO012002 13.2000 61.1000 TS 35 997 0 1003 135 45 13.5000 61.5000 D 25 1002 1.50000 4 8 277
2002126N09068 2002 21 NI AS NOT_NAMED 2002-05-08 09:00:00 TS 13.3791 60.9706 main 704 678 P___P_________ IO012002 13.2924 60.7423 TS 35 997 0 1003 135 45 13.4658 61.1988 D 25 1001 4 6 280
2002126N09068 2002 21 NI AS NOT_NAMED 2002-05-08 12:00:00 TS 13.4500 60.7000 25 1000 newdelhi main 674 635 O___O_________ jtwc_io IO012002 13.4000 60.4000 TS 35 997 0 1003 135 45 13.5000 61.0000 D 25 1000 1.50000 4 6 299
2002126N09068 2002 21 NI AS NOT_NAMED 2002-05-08 15:00:00 TS 13.6759 60.4081 main 635 597 P___P_________ IO012002 13.5849 60.0150 TS 35 997 0 1003 135 45 13.7669 60.8013 D 25 999 4 8 305
2002126N09068 2002 21 NI AS NOT_NAMED 2002-05-08 18:00:00 TS 13.9000 60.0500 25 998 newdelhi main 597 554 O___O_________ jtwc_io IO012002 13.8000 59.6000 TS 35 997 0 1003 135 45 14.0000 60.5000 D 25 998 1.50000 4 9 292
2002126N09068 2002 21 NI AS NOT_NAMED 2002-05-08 21:00:00 TS 14.0000 59.5825 25 998 newdelhi main 554 532 P___O_________ IO012002 13.9999 59.1649 TS 37 995 0 1003 135 45 14.0000 60.0000 D 25 998 1.50000 4 7 286
2002126N09068 2002 21 NI AS NOT_NAMED 2002-05-09 00:00:00 TS 14.1000 59.3500 25 998 newdelhi main 532 492 O___O_________ jtwc_io IO012002 14.2000 58.7000 TS 40 994 0 1003 135 45 14.0000 60.0000 D 25 998 1.50000 4 7 286
2002126N09068 2002 21 NI AS NOT_NAMED 2002-05-09 03:00:00 TS 14.1999 58.8612 30 998 newdelhi main 492 421 P___O_________ IO012002 14.3998 58.2224 TS 42 992 0 1003 132 40 14.0000 59.5000 DD 30 998 2.00000 6 13 290
2002126N09068 2002 21 NI AS NOT_NAMED 2002-05-09 06:00:00 TS 14.5500 58.1000 35 998 newdelhi main 411 381 O___O_________ jtwc_io IO012002 14.6000 57.7000 TS 45 991 0 30 30 80 80 1003 130 35 14.5000 58.5000 CS 35 998 2.50000 8 13 290
2002126N09068 2002 21 NI AS NOT_NAMED 2002-05-09 09:00:00 TS 14.6537 57.5575 35 996 newdelhi main 372 293 P___O_________ IO012002 14.8075 57.1150 TS 45 991 0 30 30 80 80 1003 130 35 14.5000 58.0000 CS 35 996 2.50000 8 14 289
2002126N09068 2002 21 NI AS NOT_NAMED 2002-05-09 12:00:00 TS 15.0000 56.7500 35 994 newdelhi main 293 248 O___O_________ jtwc_io IO012002 15.0000 56.5000 TS 45 991 0 30 30 80 80 1003 130 35 15.0000 57.0000 CS 35 994 2.50000 8 14 288
2002126N09068 2002 21 NI AS NOT_NAMED 2002-05-09 15:00:00 TS 15.0750 56.1887 35 994 newdelhi main 248 193 P___O_________ IO012002 15.1500 55.8774 TS 45 991 0 30 30 80 80 1003 130 35 15.0000 56.5000 CS 35 994 2.50000 8 11 291
2002126N09068 2002 21 NI AS NOT_NAMED 2002-05-09 18:00:00 TS 15.4000 55.6500 35 996 newdelhi main 193 157 O___O_________ jtwc_io IO012002 15.3000 55.3000 TS 45 991 0 30 30 80 80 1003 130 35 15.5000 56.0000 CS 35 996 2.50000 8 13 289
2002126N09068 2002 21 NI AS NOT_NAMED 2002-05-09 21:00:00 TS 15.4999 54.9025 35 998 newdelhi main 157 127 P___O_________ IO012002 15.4999 54.8050 TS 45 991 0 35 37 80 70 1003 125 35 15.5000 55.0000 CS 35 998 2.50000 8 12 290
2002126N09068 2002 21 NI AS NOT_NAMED 2002-05-10 00:00:00 TS 15.8286 54.4429 35 998 newdelhi main 130 104 O___O_________ jtwc_io IO012002 15.7000 54.4000 TS 45 991 0 40 45 80 60 1003 120 35 16.0000 54.5000 CS 35 998 2.50000 8 9 296
2002126N09068 2002 21 NI AS NOT_NAMED 2002-05-10 03:00:00 TS 15.8949 54.0466 35 998 newdelhi main 99 74 P___O_________ IO012002 15.8424 54.0698 TS 42 992 0 35 37 80 52 1003 125 30 16.0000 54.0000 CS 35 998 2.50000 8 6 295
2002126N09068 2002 21 NI AS NOT_NAMED 2002-05-10 06:00:00 TS 16.1000 53.8400 35 998 newdelhi main 70 55 O___O_________ jtwc_io IO012002 16.0000 53.8000 TS 40 994 0 30 30 80 45 1003 130 25 16.5000 54.0000 CS 35 998 2.50000 8 6 302
2002126N09068 2002 21 NI AS NOT_NAMED 2002-05-10 09:00:00 TS 16.2050 53.5200 main 55 22 P_____________ IO012002 16.2050 53.5200 TS 37 995 0 1003 140 30 7 308
2002126N09068 2002 21 NI AS NOT_NAMED 2002-05-10 12:00:00 TS 16.5000 53.3000 main 22 0 O_____________ jtwc_io IO012002 16.5000 53.3000 TS 35 997 0 1003 150 35 8 335
2002126N09068 2002 21 NI AS NOT_NAMED 2002-05-10 15:00:00 TS 16.9150 53.1725 main 0 0 P_____________ IO012002 16.9150 53.1725 TS 32 998 -1 9 348
2002126N09068 2002 21 NI AS NOT_NAMED 2002-05-10 18:00:00 TS 17.4000 53.1000 main 0 O_____________ jtwc_io IO012002 17.4000 53.1000 TD 30 1000 -1 10 352

IBTrACS Databaseについて

本データベースは、米国NOAAが公開する1842年以降の世界の熱帯低気圧のベストトラックデータアーカイブInternational Best Track Archive for Climate Stewardship (IBTrACS)を、ウェブで閲覧しやすい形式に変換したものです。

最終更新日:2021-12-06